Wetterdaten: Woche 22.08.16 - 28.08.16 (KW34)
Datum Zeit Temp. A. Feuchte A. Luftdruck Regen Wind Richtung Taupunkt Windchill Windben
22.08.2016 00:00 9,7 C 89 % 1025,6 hPa 0,0 l/m 0,0 km/h (0 Bft) O-SO 8,0 C 9,7 C 0,1 km/h (0 Bft)
22.08.2016 01:00 9,2 C 93 % 1025,9 hPa 0,0 l/m 0,5 km/h (0 Bft) O-SO 8,1 C 9,2 C 1,9 km/h (1 Bft)
22.08.2016 02:00 9,2 C 92 % 1026,0 hPa 0,0 l/m 0,1 km/h (0 Bft) O-SO 8,0 C 9,2 C 0,9 km/h (0 Bft)
22.08.2016 03:00 8,0 C 93 % 1026,2 hPa 0,0 l/m 0,1 km/h (0 Bft) O-SO 6,9 C 8,0 C 0,8 km/h (0 Bft)
22.08.2016 04:00 7,0 C 94 % 1026,5 hPa 0,0 l/m 0,0 km/h (0 Bft) O-SO 6,1 C 7,0 C 0,1 km/h (0 Bft)
22.08.2016 05:00 6,7 C 95 % 1026,7 hPa 0,0 l/m 0,1 km/h (0 Bft) O-SO 6,0 C 6,7 C 1,0 km/h (0 Bft)
22.08.2016 06:00 6,4 C 95 % 1027,1 hPa 0,0 l/m 0,0 km/h (0 Bft) O-SO 5,7 C 6,4 C 0,0 km/h (0 Bft)
22.08.2016 07:00 6,3 C 96 % 1027,7 hPa 0,0 l/m 0,1 km/h (0 Bft) O-SO 5,8 C 6,3 C 0,4 km/h (0 Bft)
22.08.2016 08:00 10,7 C 90 % 1027,9 hPa 0,0 l/m 0,8 km/h (0 Bft) O-SO 9,0 C 10,7 C 2,8 km/h (1 Bft)
22.08.2016 09:00 15,6 C 74 % 1028,1 hPa 0,0 l/m 2,7 km/h (1 Bft) O-NO 10,9 C 15,6 C 6,6 km/h (2 Bft)
22.08.2016 10:00 17,2 C 65 % 1028,3 hPa 0,0 l/m 4,2 km/h (1 Bft) O 10,6 C 17,2 C 10,5 km/h (2 Bft)
22.08.2016 11:00 18,2 C 60 % 1028,3 hPa 0,0 l/m 3,8 km/h (1 Bft) O 10,3 C 18,2 C 9,5 km/h (2 Bft)
22.08.2016 12:00 19,4 C 54 % 1028,3 hPa 0,0 l/m 4,7 km/h (1 Bft) O-NO 9,8 C 19,4 C 10,7 km/h (2 Bft)
22.08.2016 13:00 20,8 C 51 % 1028,1 hPa 0,0 l/m 4,6 km/h (1 Bft) O-NO 10,4 C 20,8 C 13,2 km/h (3 Bft)
22.08.2016 14:00 21,5 C 51 % 1027,8 hPa 0,0 l/m 3,9 km/h (1 Bft) O-NO 10,8 C 21,5 C 10,5 km/h (2 Bft)
22.08.2016 15:00 21,0 C 53 % 1027,7 hPa 0,0 l/m 4,1 km/h (1 Bft) O-NO 11,0 C 21,0 C 10,5 km/h (2 Bft)
22.08.2016 16:00 21,5 C 55 % 1027,7 hPa 0,0 l/m 3,5 km/h (1 Bft) O-NO 11,9 C 21,5 C 9,5 km/h (2 Bft)
22.08.2016 17:00 21,6 C 55 % 1027,6 hPa 0,0 l/m 2,7 km/h (1 Bft) O 12,2 C 21,6 C 7,0 km/h (2 Bft)
22.08.2016 18:00 21,6 C 55 % 1027,6 hPa 0,0 l/m 2,8 km/h (1 Bft) S-SO 12,2 C 21,6 C 6,3 km/h (2 Bft)
22.08.2016 19:00 19,8 C 62 % 1027,7 hPa 0,0 l/m 1,4 km/h (1 Bft) O-NO 12,2 C 19,8 C 3,9 km/h (1 Bft)
22.08.2016 20:00 17,4 C 72 % 1027,9 hPa 0,0 l/m 0,1 km/h (0 Bft) O-NO 12,3 C 17,4 C 1,2 km/h (1 Bft)
22.08.2016 21:00 14,8 C 82 % 1028,3 hPa 0,0 l/m 0,1 km/h (0 Bft) O-NO 11,7 C 14,8 C 0,4 km/h (0 Bft)
22.08.2016 22:00 13,2 C 87 % 1028,4 hPa 0,0 l/m 0,2 km/h (0 Bft) O-NO 11,2 C 13,2 C 0,9 km/h (0 Bft)
22.08.2016 23:00 12,1 C 90 % 1028,4 hPa 0,0 l/m 0,0 km/h (0 Bft) O-NO 10,5 C 12,1 C 0,4 km/h (0 Bft)
23.08.2016 00:00 11,4 C 92 % 1028,5 hPa 0,0 l/m 0,0 km/h (0 Bft) O-NO 10,2 C 11,4 C 0,0 km/h (0 Bft)
23.08.2016 01:00 10,7 C 93 % 1028,2 hPa 0,0 l/m 0,0 km/h (0 Bft) O-NO 9,6 C 10,7 C 0,0 km/h (0 Bft)
23.08.2016 02:00 10,2 C 94 % 1028,1 hPa 0,0 l/m 0,0 km/h (0 Bft) O-NO 9,3 C 10,2 C 0,0 km/h (0 Bft)
23.08.2016 03:00 9,8 C 95 % 1027,8 hPa 0,0 l/m 0,0 km/h (0 Bft) O-NO 9,0 C 9,8 C 0,3 km/h (0 Bft)
23.08.2016 04:00 9,4 C 95 % 1027,8 hPa 0,0 l/m 0,1 km/h (0 Bft) O-NO 8,7 C 9,4 C 0,4 km/h (0 Bft)
23.08.2016 05:00 9,0 C 95 % 1027,7 hPa 0,0 l/m 0,1 km/h (0 Bft) O-NO 8,3 C 9,0 C 0,2 km/h (0 Bft)
23.08.2016 06:00 8,6 C 96 % 1027,7 hPa 0,0 l/m 0,0 km/h (0 Bft) O-NO 8,0 C 8,6 C 0,2 km/h (0 Bft)
23.08.2016 07:00 8,8 C 97 % 1027,8 hPa 0,0 l/m 0,1 km/h (0 Bft) O-NO 8,3 C 8,8 C 0,7 km/h (0 Bft)
23.08.2016 08:00 12,9 C 89 % 1027,8 hPa 0,0 l/m 0,5 km/h (0 Bft) O-NO 11,1 C 12,9 C 1,9 km/h (1 Bft)
23.08.2016 09:00 17,9 C 74 % 1027,7 hPa 0,0 l/m 1,5 km/h (1 Bft) N-NO 13,3 C 17,9 C 4,0 km/h (1 Bft)
23.08.2016 10:00 21,1 C 61 % 1027,6 hPa 0,0 l/m 2,3 km/h (1 Bft) W 13,3 C 21,1 C 6,3 km/h (2 Bft)
23.08.2016 11:00 23,1 C 53 % 1027,1 hPa 0,0 l/m 3,4 km/h (1 Bft) NW 13,1 C 23,1 C 7,9 km/h (2 Bft)
23.08.2016 12:00 24,2 C 51 % 1026,6 hPa 0,0 l/m 3,7 km/h (1 Bft) W-NW 13,5 C 24,2 C 8,3 km/h (2 Bft)
23.08.2016 13:00 25,8 C 47 % 1025,8 hPa 0,0 l/m 3,4 km/h (1 Bft) S-SW 13,5 C 25,8 C 9,4 km/h (2 Bft)
23.08.2016 14:00 27,1 C 43 % 1025,2 hPa 0,0 l/m 3,4 km/h (1 Bft) SW 13,6 C 27,1 C 9,1 km/h (2 Bft)
23.08.2016 15:00 28,2 C 41 % 1024,7 hPa 0,0 l/m 3,2 km/h (1 Bft) N-NW 13,5 C 28,2 C 7,8 km/h (2 Bft)
23.08.2016 16:00 28,4 C 41 % 1024,2 hPa 0,0 l/m 3,7 km/h (1 Bft) W-NW 13,8 C 28,4 C 10,3 km/h (2 Bft)
23.08.2016 17:00 28,2 C 40 % 1023,8 hPa 0,0 l/m 3,1 km/h (1 Bft) NW 13,4 C 28,2 C 7,4 km/h (2 Bft)
23.08.2016 18:00 27,6 C 40 % 1023,7 hPa 0,0 l/m 2,6 km/h (1 Bft) NW 12,9 C 27,6 C 5,9 km/h (2 Bft)
23.08.2016 19:00 25,3 C 46 % 1023,4 hPa 0,0 l/m 1,7 km/h (1 Bft) S-SW 12,9 C 25,3 C 5,2 km/h (1 Bft)
23.08.2016 20:00 22,4 C 58 % 1023,6 hPa 0,0 l/m 0,3 km/h (0 Bft) W 13,7 C 22,4 C 1,3 km/h (1 Bft)
23.08.2016 21:00 18,8 C 73 % 1023,9 hPa 0,0 l/m 0,0 km/h (0 Bft) W 13,8 C 18,8 C 0,3 km/h (0 Bft)
23.08.2016 22:00 16,6 C 81 % 1024,0 hPa 0,0 l/m 0,2 km/h (0 Bft) W-NW 13,3 C 16,6 C 1,1 km/h (0 Bft)
23.08.2016 23:00 15,0 C 86 % 1023,8 hPa 0,0 l/m 0,0 km/h (0 Bft) W-NW 12,7 C 15,0 C 0,1 km/h (0 Bft)
24.08.2016 00:00 14,1 C 89 % 1023,7 hPa 0,0 l/m 0,0 km/h (0 Bft) W-NW 12,2 C 14,1 C 0,0 km/h (0 Bft)
24.08.2016 01:00 13,1 C 91 % 1023,4 hPa 0,0 l/m 0,0 km/h (0 Bft) W-NW 11,7 C 13,1 C 0,0 km/h (0 Bft)
24.08.2016 02:00 12,3 C 93 % 1023,1 hPa 0,0 l/m 0,0 km/h (0 Bft) W-NW 11,2 C 12,3 C 0,1 km/h (0 Bft)
24.08.2016 03:00 11,6 C 94 % 1022,9 hPa 0,0 l/m 0,0 km/h (0 Bft) W-NW 10,7 C 11,6 C 0,0 km/h (0 Bft)
24.08.2016 04:00 11,1 C 94 % 1022,6 hPa 0,0 l/m 0,0 km/h (0 Bft) W-NW 10,2 C 11,1 C 0,3 km/h (0 Bft)
24.08.2016 05:00 10,3 C 95 % 1022,3 hPa 0,0 l/m 0,0 km/h (0 Bft) W-NW 9,6 C 10,3 C 0,0 km/h (0 Bft)
24.08.2016 06:00 9,9 C 95 % 1022,3 hPa 0,0 l/m 0,0 km/h (0 Bft) W-NW 9,2 C 9,9 C 0,1 km/h (0 Bft)
24.08.2016 07:00 10,0 C 96 % 1022,6 hPa 0,0 l/m 0,0 km/h (0 Bft) W-NW 9,4 C 10,0 C 0,5 km/h (0 Bft)
24.08.2016 08:00 14,6 C 87 % 1022,5 hPa 0,0 l/m 0,4 km/h (0 Bft) W-NW 12,4 C 14,6 C 1,7 km/h (1 Bft)
24.08.2016 09:00 19,8 C 73 % 1022,1 hPa 0,0 l/m 1,9 km/h (1 Bft) W 14,7 C 19,8 C 5,2 km/h (1 Bft)
24.08.2016 10:00 23,4 C 59 % 1021,8 hPa 0,0 l/m 2,9 km/h (1 Bft) S-SW 14,8 C 23,4 C 7,9 km/h (2 Bft)
24.08.2016 11:00 25,4 C 52 % 1021,6 hPa 0,0 l/m 3,5 km/h (1 Bft) S-SW 14,8 C 25,4 C 7,9 km/h (2 Bft)
24.08.2016 12:00 26,8 C 49 % 1021,3 hPa 0,0 l/m 3,9 km/h (1 Bft) W-NW 15,0 C 26,8 C 7,2 km/h (2 Bft)
24.08.2016 13:00 28,2 C 44 % 1020,7 hPa 0,0 l/m 4,2 km/h (1 Bft) NW 14,9 C 28,2 C 7,5 km/h (2 Bft)
24.08.2016 14:00 29,6 C 40 % 1020,3 hPa 0,0 l/m 3,9 km/h (1 Bft) S-SW 14,7 C 29,6 C 8,2 km/h (2 Bft)
24.08.2016 15:00 30,7 C 37 % 1019,9 hPa 0,0 l/m 3,8 km/h (1 Bft) S-SW 14,1 C 30,7 C 6,8 km/h (2 Bft)
24.08.2016 16:00 31,3 C 33 % 1019,5 hPa 0,0 l/m 3,6 km/h (1 Bft) W-NW 13,1 C 31,3 C 7,6 km/h (2 Bft)
24.08.2016 17:00 31,1 C 35 % 1019,3 hPa 0,0 l/m 3,4 km/h (1 Bft) NW 13,9 C 31,1 C 6,9 km/h (2 Bft)
24.08.2016 18:00 29,9 C 40 % 1018,9 hPa 0,0 l/m 3,1 km/h (1 Bft) W-SW 14,7 C 29,9 C 7,8 km/h (2 Bft)
24.08.2016 19:00 27,3 C 46 % 1018,6 hPa 0,0 l/m 3,3 km/h (1 Bft) W-NW 14,6 C 27,3 C 9,7 km/h (2 Bft)
24.08.2016 20:00 25,1 C 53 % 1019,0 hPa 0,0 l/m 1,4 km/h (1 Bft) W 14,7 C 25,1 C 5,1 km/h (1 Bft)
24.08.2016 21:00 21,4 C 67 % 1019,4 hPa 0,0 l/m 0,1 km/h (0 Bft) W 14,9 C 21,4 C 0,8 km/h (0 Bft)
24.08.2016 22:00 18,4 C 77 % 1019,5 hPa 0,0 l/m 0,0 km/h (0 Bft) W 14,2 C 18,4 C 0,3 km/h (0 Bft)
24.08.2016 23:00 16,1 C 84 % 1019,3 hPa 0,0 l/m 0,0 km/h (0 Bft) W 13,4 C 16,1 C 0,7 km/h (0 Bft)
25.08.2016 00:00 14,9 C 87 % 1019,1 hPa 0,0 l/m 0,1 km/h (0 Bft) W 12,8 C 14,9 C 0,5 km/h (0 Bft)
25.08.2016 01:00 13,8 C 90 % 1018,7 hPa 0,0 l/m 0,2 km/h (0 Bft) W 12,2 C 13,8 C 1,3 km/h (1 Bft)
25.08.2016 02:00 12,9 C 92 % 1018,4 hPa 0,0 l/m 0,0 km/h (0 Bft) W 11,6 C 12,9 C 0,4 km/h (0 Bft)
25.08.2016 03:00 12,1 C 93 % 1018,1 hPa 0,0 l/m 0,0 km/h (0 Bft) W 11,1 C 12,1 C 0,1 km/h (0 Bft)
25.08.2016 04:00 11,5 C 94 % 1017,8 hPa 0,0 l/m 0,0 km/h (0 Bft) W 10,6 C 11,5 C 0,0 km/h (0 Bft)
25.08.2016 05:00 10,7 C 95 % 1017,6 hPa 0,0 l/m 0,1 km/h (0 Bft) W 9,9 C 10,7 C 0,1 km/h (0 Bft)
25.08.2016 06:00 10,4 C 95 % 1017,8 hPa 0,0 l/m 0,0 km/h (0 Bft) W 9,6 C 10,4 C 0,2 km/h (0 Bft)
25.08.2016 07:00 10,6 C 96 % 1017,8 hPa 0,0 l/m 0,2 km/h (0 Bft) W 10,0 C 10,6 C 1,2 km/h (1 Bft)
25.08.2016 08:00 15,3 C 84 % 1017,6 hPa 0,0 l/m 0,4 km/h (0 Bft) W 12,6 C 15,3 C 1,9 km/h (1 Bft)
25.08.2016 09:00 20,7 C 69 % 1017,4 hPa 0,0 l/m 1,3 km/h (1 Bft) W 14,8 C 20,7 C 2,7 km/h (1 Bft)
25.08.2016 10:00 23,7 C 59 % 1017,1 hPa 0,0 l/m 2,2 km/h (1 Bft) NO 15,3 C 23,7 C 5,2 km/h (1 Bft)
25.08.2016 11:00 26,4 C 54 % 1016,7 hPa 0,0 l/m 2,4 km/h (1 Bft) NO 16,3 C 26,4 C 5,5 km/h (2 Bft)
25.08.2016 12:00 27,8 C 49 % 1016,3 hPa 0,0 l/m 3,0 km/h (1 Bft) O 16,1 C 27,8 C 5,1 km/h (1 Bft)
25.08.2016 13:00 29,9 C 42 % 1016,0 hPa 0,0 l/m 2,7 km/h (1 Bft) W 15,5 C 29,9 C 6,6 km/h (2 Bft)
25.08.2016 14:00 31,6 C 39 % 1015,7 hPa 0,0 l/m 2,8 km/h (1 Bft) NO 15,9 C 31,6 C 6,7 km/h (2 Bft)
25.08.2016 15:00 32,7 C 35 % 1015,3 hPa 0,0 l/m 3,0 km/h (1 Bft) NO 15,0 C 32,7 C 7,2 km/h (2 Bft)
25.08.2016 16:00 33,3 C 31 % 1015,0 hPa 0,0 l/m 2,8 km/h (1 Bft) W-NW 13,7 C 33,3 C 7,3 km/h (2 Bft)
25.08.2016 17:00 32,9 C 31 % 1014,5 hPa 0,0 l/m 2,7 km/h (1 Bft) S-SW 13,4 C 32,9 C 6,2 km/h (2 Bft)
25.08.2016 18:00 32,0 C 35 % 1014,3 hPa 0,0 l/m 2,3 km/h (1 Bft) W-SW 14,6 C 32,0 C 4,9 km/h (1 Bft)
25.08.2016 19:00 29,3 C 47 % 1014,2 hPa 0,0 l/m 1,3 km/h (1 Bft) W 16,9 C 29,3 C 4,9 km/h (1 Bft)
25.08.2016 20:00 25,8 C 60 % 1014,7 hPa 0,0 l/m 0,2 km/h (0 Bft) W 17,3 C 25,8 C 1,3 km/h (1 Bft)
25.08.2016 21:00 22,1 C 73 % 1015,0 hPa 0,0 l/m 0,1 km/h (0 Bft) W 16,9 C 22,1 C 0,8 km/h (0 Bft)
25.08.2016 22:00 20,0 C 80 % 1015,2 hPa 0,0 l/m 0,1 km/h (0 Bft) W 16,5 C 20,0 C 0,5 km/h (0 Bft)
25.08.2016 23:00 18,7 C 86 % 1015,3 hPa 0,0 l/m 0,0 km/h (0 Bft) W 16,4 C 18,7 C 0,0 km/h (0 Bft)
26.08.2016 00:00 17,9 C 89 % 1015,2 hPa 0,0 l/m 0,0 km/h (0 Bft) W 16,0 C 17,9 C 0,0 km/h (0 Bft)
26.08.2016 01:00 16,9 C 92 % 1015,1 hPa 0,0 l/m 0,0 km/h (0 Bft) W 15,5 C 16,9 C 0,3 km/h (0 Bft)
26.08.2016 02:00 16,0 C 93 % 1015,1 hPa 0,0 l/m 0,0 km/h (0 Bft) W 14,9 C 16,0 C 0,1 km/h (0 Bft)
26.08.2016 03:00 15,2 C 94 % 1015,3 hPa 0,0 l/m 0,0 km/h (0 Bft) W 14,3 C 15,2 C 0,0 km/h (0 Bft)
26.08.2016 04:00 14,7 C 95 % 1015,5 hPa 0,0 l/m 0,0 km/h (0 Bft) W 13,9 C 14,7 C 0,0 km/h (0 Bft)
26.08.2016 05:00 14,1 C 95 % 1015,6 hPa 0,0 l/m 0,0 km/h (0 Bft) W 13,4 C 14,1 C 0,0 km/h (0 Bft)
26.08.2016 06:00 13,7 C 96 % 1015,7 hPa 0,0 l/m 0,0 km/h (0 Bft) W 13,1 C 13,7 C 0,0 km/h (0 Bft)
26.08.2016 07:00 14,1 C 97 % 1016,2 hPa 0,0 l/m 0,0 km/h (0 Bft) W 13,7 C 14,1 C 0,0 km/h (0 Bft)
26.08.2016 08:00 18,3 C 90 % 1016,1 hPa 0,0 l/m 0,0 km/h (0 Bft) W 16,6 C 18,3 C 0,0 km/h (0 Bft)
26.08.2016 09:00 24,3 C 69 % 1016,0 hPa 0,0 l/m 0,5 km/h (0 Bft) W-NW 18,3 C 24,3 C 1,3 km/h (1 Bft)
26.08.2016 10:00 28,4 C 54 % 1015,9 hPa 0,0 l/m 3,1 km/h (1 Bft) O-NO 18,2 C 28,4 C 7,2 km/h (2 Bft)
26.08.2016 11:00 30,0 C 48 % 1015,9 hPa 0,0 l/m 4,9 km/h (1 Bft) O-NO 17,6 C 30,0 C 10,8 km/h (2 Bft)
26.08.2016 12:00 31,5 C 42 % 1015,6 hPa 0,0 l/m 4,9 km/h (1 Bft) NO 17,0 C 31,5 C 10,6 km/h (2 Bft)
26.08.2016 13:00 33,1 C 33 % 1015,6 hPa 0,0 l/m 4,9 km/h (1 Bft) O 14,6 C 33,1 C 12,2 km/h (2 Bft)
26.08.2016 14:00 34,0 C 30 % 1015,5 hPa 0,0 l/m 5,0 km/h (1 Bft) O 14,0 C 34,0 C 12,0 km/h (2 Bft)
26.08.2016 15:00 34,8 C 29 % 1015,2 hPa 0,0 l/m 3,8 km/h (1 Bft) O-NO 13,9 C 34,8 C 9,8 km/h (2 Bft)
26.08.2016 16:00 35,0 C 30 % 1015,0 hPa 0,0 l/m 4,0 km/h (1 Bft) O-NO 14,7 C 35,0 C 9,8 km/h (2 Bft)
26.08.2016 17:00 33,4 C 35 % 1014,9 hPa 0,0 l/m 3,1 km/h (1 Bft) NW 15,6 C 33,4 C 6,8 km/h (2 Bft)
26.08.2016 18:00 32,2 C 38 % 1014,9 hPa 0,0 l/m 2,0 km/h (1 Bft) W-NW 16,2 C 32,2 C 4,3 km/h (1 Bft)
26.08.2016 19:00 29,7 C 46 % 1015,0 hPa 0,0 l/m 0,8 km/h (0 Bft) SW 16,8 C 29,7 C 3,1 km/h (1 Bft)
26.08.2016 20:00 27,3 C 55 % 1015,6 hPa 0,0 l/m 0,2 km/h (0 Bft) S-SW 17,3 C 27,3 C 1,2 km/h (1 Bft)
26.08.2016 21:00 23,8 C 67 % 1016,2 hPa 0,0 l/m 0,0 km/h (0 Bft) S-SW 17,4 C 23,8 C 0,1 km/h (0 Bft)
26.08.2016 22:00 21,4 C 76 % 1016,6 hPa 0,0 l/m 0,0 km/h (0 Bft) S-SW 16,9 C 21,4 C 0,0 km/h (0 Bft)
26.08.2016 23:00 19,6 C 82 % 1016,6 hPa 0,0 l/m 0,0 km/h (0 Bft) S-SW 16,3 C 19,6 C 0,0 km/h (0 Bft)
27.08.2016 00:00 18,7 C 84 % 1016,6 hPa 0,0 l/m 0,0 km/h (0 Bft) S-SW 15,9 C 18,7 C 0,0 km/h (0 Bft)
27.08.2016 01:00 17,6 C 87 % 1016,6 hPa 0,0 l/m 0,0 km/h (0 Bft) S-SW 15,5 C 17,6 C 0,0 km/h (0 Bft)
27.08.2016 02:00 16,8 C 89 % 1016,6 hPa 0,0 l/m 0,0 km/h (0 Bft) S-SW 15,0 C 16,8 C 0,0 km/h (0 Bft)
27.08.2016 03:00 16,0 C 91 % 1016,7 hPa 0,0 l/m 0,0 km/h (0 Bft) S-SW 14,5 C 16,0 C 0,0 km/h (0 Bft)
27.08.2016 04:00 15,2 C 92 % 1016,5 hPa 0,0 l/m 0,0 km/h (0 Bft) S-SW 13,9 C 15,2 C 0,0 km/h (0 Bft)
27.08.2016 05:00 14,6 C 93 % 1016,3 hPa 0,0 l/m 0,0 km/h (0 Bft) S-SW 13,6 C 14,6 C 0,0 km/h (0 Bft)
27.08.2016 06:00 14,3 C 94 % 1016,2 hPa 0,0 l/m 0,0 km/h (0 Bft) S-SW 13,3 C 14,3 C 0,0 km/h (0 Bft)
27.08.2016 07:00 14,3 C 95 % 1016,4 hPa 0,0 l/m 0,0 km/h (0 Bft) S-SW 13,5 C 14,3 C 0,0 km/h (0 Bft)
27.08.2016 08:00 18,5 C 83 % 1016,7 hPa 0,0 l/m 0,0 km/h (0 Bft) SW 15,6 C 18,5 C 0,0 km/h (0 Bft)
27.08.2016 09:00 23,6 C 69 % 1016,7 hPa 0,0 l/m 0,0 km/h (0 Bft) SW 17,7 C 23,6 C 0,0 km/h (0 Bft)
27.08.2016 10:00 28,3 C 54 % 1016,5 hPa 0,0 l/m 0,2 km/h (0 Bft) W 18,0 C 28,3 C 0,8 km/h (0 Bft)
27.08.2016 11:00 30,9 C 44 % 1016,3 hPa 0,0 l/m 2,2 km/h (1 Bft) O 17,1 C 30,9 C 5,2 km/h (1 Bft)
27.08.2016 12:00 31,6 C 41 % 1016,0 hPa 0,0 l/m 2,8 km/h (1 Bft) O-NO 16,6 C 31,6 C 5,8 km/h (2 Bft)
27.08.2016 13:00 33,1 C 34 % 1015,5 hPa 0,0 l/m 3,0 km/h (1 Bft) W-NW 15,0 C 33,1 C 7,0 km/h (2 Bft)
27.08.2016 14:00 33,9 C 29 % 1015,0 hPa 0,0 l/m 3,3 km/h (1 Bft) N-NW 13,5 C 33,9 C 7,8 km/h (2 Bft)
27.08.2016 15:00 33,5 C 28 % 1014,6 hPa 0,0 l/m 2,2 km/h (1 Bft) NO 12,4 C 33,5 C 5,1 km/h (1 Bft)
27.08.2016 16:00 33,7 C 28 % 1014,3 hPa 0,0 l/m 2,4 km/h (1 Bft) NO 12,8 C 33,7 C 6,7 km/h (2 Bft)
27.08.2016 17:00 31,8 C 35 % 1014,0 hPa 0,0 l/m 1,3 km/h (1 Bft) O-NO 14,1 C 31,8 C 3,1 km/h (1 Bft)
27.08.2016 18:00 29,6 C 45 % 1013,8 hPa 0,0 l/m 0,3 km/h (0 Bft) O-NO 16,2 C 29,6 C 0,8 km/h (0 Bft)
27.08.2016 19:00 28,0 C 56 % 1013,7 hPa 0,0 l/m 0,1 km/h (0 Bft) O-NO 18,4 C 28,0 C 0,7 km/h (0 Bft)
27.08.2016 20:00 25,4 C 59 % 1014,0 hPa 0,0 l/m 0,1 km/h (0 Bft) O-NO 16,9 C 25,4 C 0,5 km/h (0 Bft)
27.08.2016 21:00 22,4 C 69 % 1014,5 hPa 0,0 l/m 0,1 km/h (0 Bft) O-NO 16,4 C 22,4 C 0,4 km/h (0 Bft)
27.08.2016 22:00 20,8 C 73 % 1014,6 hPa 0,0 l/m 0,0 km/h (0 Bft) O-NO 15,9 C 20,8 C 0,0 km/h (0 Bft)
27.08.2016 23:00 19,4 C 78 % 1014,7 hPa 0,0 l/m 0,0 km/h (0 Bft) O-NO 15,5 C 19,4 C 0,0 km/h (0 Bft)
28.08.2016 00:00 18,6 C 81 % 1014,8 hPa 0,0 l/m 0,0 km/h (0 Bft) O-NO 15,2 C 18,6 C 0,0 km/h (0 Bft)
28.08.2016 01:00 17,8 C 83 % 1014,8 hPa 0,0 l/m 0,0 km/h (0 Bft) O-NO 14,9 C 17,8 C 0,0 km/h (0 Bft)
28.08.2016 02:00 17,7 C 84 % 1014,6 hPa 0,0 l/m 0,0 km/h (0 Bft) O-NO 15,0 C 17,7 C 0,0 km/h (0 Bft)
28.08.2016 03:00 17,3 C 85 % 1014,5 hPa 0,0 l/m 0,3 km/h (0 Bft) O-NO 14,8 C 17,3 C 1,2 km/h (1 Bft)
28.08.2016 04:00 17,0 C 86 % 1014,8 hPa 0,0 l/m 0,2 km/h (0 Bft) O 14,6 C 17,0 C 1,6 km/h (1 Bft)
28.08.2016 05:00 17,9 C 91 % 1015,5 hPa 4,8 l/m 2,9 km/h (1 Bft) O 16,5 C 17,8 C 6,9 km/h (2 Bft)
28.08.2016 06:00 17,3 C 93 % 1015,0 hPa 0,0 l/m 1,1 km/h (1 Bft) O-NO 16,3 C 17,3 C 2,6 km/h (1 Bft)
28.08.2016 07:00 16,0 C 95 % 1014,7 hPa 0,0 l/m 0,5 km/h (0 Bft) O-NO 15,3 C 16,0 C 2,1 km/h (1 Bft)
28.08.2016 08:00 18,7 C 93 % 1015,1 hPa 0,0 l/m 0,9 km/h (0 Bft) W-SW 17,5 C 18,7 C 2,7 km/h (1 Bft)
28.08.2016 09:00 21,8 C 84 % 1015,1 hPa 0,0 l/m 1,7 km/h (1 Bft) W-SW 19,1 C 21,8 C 4,3 km/h (1 Bft)
28.08.2016 10:00 24,8 C 69 % 1015,0 hPa 0,0 l/m 2,9 km/h (1 Bft) O 18,7 C 24,8 C 6,7 km/h (2 Bft)
28.08.2016 11:00 27,3 C 53 % 1015,0 hPa 0,0 l/m 5,0 km/h (1 Bft) O-NO 16,9 C 27,3 C 10,2 km/h (2 Bft)
28.08.2016 12:00 28,6 C 49 % 1014,8 hPa 0,0 l/m 4,8 km/h (1 Bft) O 16,9 C 28,6 C 10,3 km/h (2 Bft)
28.08.2016 13:00 30,3 C 41 % 1014,3 hPa 0,0 l/m 5,9 km/h (2 Bft) O 15,3 C 30,3 C 14,1 km/h (3 Bft)
28.08.2016 14:00 31,3 C 34 % 1014,0 hPa 0,0 l/m 6,1 km/h (2 Bft) NO 13,7 C 31,3 C 15,7 km/h (3 Bft)
28.08.2016 15:00 31,8 C 34 % 1013,7 hPa 0,0 l/m 5,7 km/h (2 Bft) O-NO 13,8 C 31,8 C 13,7 km/h (3 Bft)
28.08.2016 16:00 31,9 C 32 % 1013,6 hPa 0,0 l/m 5,9 km/h (2 Bft) NO 13,1 C 31,9 C 14,1 km/h (3 Bft)
28.08.2016 17:00 30,8 C 33 % 1013,6 hPa 0,0 l/m 5,5 km/h (2 Bft) O-NO 12,5 C 30,8 C 13,4 km/h (3 Bft)
28.08.2016 18:00 30,1 C 33 % 1013,7 hPa 0,0 l/m 5,6 km/h (2 Bft) O-NO 12,1 C 30,1 C 13,0 km/h (3 Bft)
28.08.2016 19:00 27,6 C 41 % 1013,7 hPa 0,0 l/m 3,6 km/h (1 Bft) O 13,0 C 27,6 C 9,7 km/h (2 Bft)
28.08.2016 20:00 25,4 C 50 % 1014,2 hPa 0,0 l/m 1,3 km/h (1 Bft) O-NO 14,2 C 25,4 C 4,8 km/h (1 Bft)
28.08.2016 21:00 22,9 C 62 % 1014,6 hPa 0,0 l/m 0,1 km/h (0 Bft) O-NO 15,3 C 22,9 C 0,7 km/h (0 Bft)
28.08.2016 22:00 20,7 C 72 % 1015,1 hPa 0,0 l/m 0,1 km/h (0 Bft) O-NO 15,5 C 20,7 C 1,2 km/h (1 Bft)
28.08.2016 23:00 19,5 C 78 % 1015,6 hPa 0,0 l/m 0,2 km/h (0 Bft) O-NO 15,6 C 19,5 C 1,3 km/h (1 Bft)
Min-Datum _ 22.08.16 27.08.16 28.08.16 - 28.08.16 - 22.08.16 22.08.16 28.08.16
_ Min-Zeit 07:05 16:50 19:00 - 23:10 - 07:10 07:05 23:10
Minimum _ 6,1 C 26 % 1013,5 hPa - 0,0 km/h (0 Bft) - 5,4 C 6,1 C 0,0 km/h (0 Bft)
Max-Datum _ 26.08.16 26.08.16 22.08.16 28.08.16 28.08.16 - 28.08.16 26.08.16 28.08.16
_ Max-Zeit 16:00 08:00 22:50 05:15 05:10 - 09:30 16:00 05:10
Maximum _ 35,5 C 98 % 1028,6 hPa 4,8 l/m 10,8 km/h
O (2 Bft)
- 19,7 C 35,5 C 22,5 km/h
O-NO (4 Bft)
Durchschnitt _ 20,9 C 68 % 1019,6 hPa #4,8 l/m 1,5 km/h (1 Bft) O-NO 13,5 C 20,9 C 3,8 km/h (1 Bft)